createdAt,value
2023-04-06T00:00:27.099Z,46.15
2023-04-06T00:02:53.749Z,46.98
2023-04-06T00:05:21.306Z,47.81
2023-04-06T00:07:47.988Z,47.88
2023-04-06T00:10:14.889Z,47.25
2023-04-06T00:12:41.408Z,47.35
2023-04-06T00:15:08.367Z,47.98
2023-04-06T00:17:35.193Z,46.74
2023-04-06T00:20:01.804Z,47.16
2023-04-06T00:22:28.250Z,47.43
2023-04-06T00:24:54.699Z,47.61
2023-04-06T00:27:21.148Z,47.00
2023-04-06T00:29:47.594Z,47.24
2023-04-06T00:32:14.095Z,47.09
2023-04-06T00:34:40.636Z,46.94
2023-04-06T00:37:07.132Z,47.50
2023-04-06T00:39:33.600Z,47.37
2023-04-06T00:42:01.159Z,47.29
2023-04-06T00:44:27.908Z,47.37
2023-04-06T00:46:54.373Z,47.54
2023-04-06T00:49:21.188Z,47.91
2023-04-06T00:51:47.879Z,47.09
2023-04-06T00:54:14.398Z,47.26
2023-04-06T00:56:43.010Z,47.58
2023-04-06T00:59:09.822Z,47.82
2023-04-06T01:01:36.646Z,47.54
2023-04-06T01:04:03.824Z,47.67
2023-04-06T01:06:30.282Z,47.64
2023-04-06T01:08:56.940Z,46.96
2023-04-06T01:11:23.471Z,47.90
2023-04-06T01:13:49.940Z,47.73
2023-04-06T01:16:16.487Z,47.56
2023-04-06T01:18:43.399Z,47.72
2023-04-06T01:21:16.138Z,47.33
2023-04-06T01:23:45.298Z,47.79
2023-04-06T01:26:12.020Z,47.92
2023-04-06T01:28:38.677Z,48.04
2023-04-06T01:31:07.392Z,48.73
2023-04-06T01:33:33.871Z,48.78
2023-04-06T01:36:01.201Z,48.73
2023-04-06T01:38:27.927Z,49.13
2023-04-06T01:40:54.958Z,48.69
2023-04-06T01:43:21.525Z,48.84
2023-04-06T01:45:48.007Z,48.05
2023-04-06T01:48:14.468Z,47.92
2023-04-06T01:50:41.048Z,48.45
2023-04-06T01:53:07.527Z,47.63
2023-04-06T01:55:33.983Z,47.58
2023-04-06T01:58:00.600Z,47.29
2023-04-06T02:00:28.764Z,47.99
2023-04-06T02:02:55.445Z,48.45
2023-04-06T02:05:22.089Z,48.32
2023-04-06T02:07:48.630Z,48.09
2023-04-06T02:10:16.302Z,48.16
2023-04-06T02:12:42.855Z,48.59
2023-04-06T02:15:09.825Z,48.95
2023-04-06T02:17:36.413Z,49.21
2023-04-06T02:20:03.331Z,48.46
2023-04-06T02:22:29.817Z,48.91
2023-04-06T02:24:56.436Z,49.30
2023-04-06T02:27:22.925Z,49.04
2023-04-06T02:29:49.414Z,49.45
2023-04-06T02:32:15.853Z,49.36
2023-04-06T02:34:42.314Z,49.40
2023-04-06T02:37:08.753Z,49.44
2023-04-06T02:39:35.410Z,49.15
2023-04-06T02:42:01.947Z,49.04
2023-04-06T02:44:28.490Z,48.69
2023-04-06T02:46:55.246Z,48.93
2023-04-06T02:49:21.696Z,48.42
2023-04-06T02:51:48.174Z,48.67
2023-04-06T02:54:14.637Z,48.88
2023-04-06T02:56:41.329Z,48.76
2023-04-06T02:59:07.970Z,49.60
2023-04-06T03:01:34.720Z,49.19
2023-04-06T03:04:01.619Z,49.88
2023-04-06T03:06:28.086Z,49.59
2023-04-06T03:08:54.581Z,49.50
2023-04-06T03:11:21.569Z,49.05
2023-04-06T03:13:48.082Z,49.78
2023-04-06T03:16:14.642Z,49.28
2023-04-06T03:18:41.194Z,49.44
2023-04-06T03:21:07.658Z,48.86
2023-04-06T03:23:34.092Z,48.63
2023-04-06T03:26:00.676Z,48.73
2023-04-06T03:28:27.097Z,48.85
2023-04-06T03:30:53.572Z,48.54
2023-04-06T03:33:20.299Z,49.10
2023-04-06T03:35:46.750Z,48.88
2023-04-06T03:38:13.295Z,49.08
2023-04-06T03:40:39.717Z,48.80
2023-04-06T03:43:06.213Z,49.03
2023-04-06T03:45:32.729Z,49.06
2023-04-06T03:47:59.203Z,49.16
2023-04-06T03:50:26.208Z,49.44
2023-04-06T03:52:52.645Z,49.19
2023-04-06T03:55:19.091Z,49.36
2023-04-06T03:57:45.725Z,48.98
2023-04-06T04:00:13.209Z,49.71
2023-04-06T04:02:39.979Z,49.47
2023-04-06T04:05:06.940Z,49.02
2023-04-06T04:07:33.423Z,49.41
2023-04-06T04:09:59.859Z,50.06
2023-04-06T04:12:26.312Z,50.81
2023-04-06T04:14:52.763Z,50.71
2023-04-06T04:17:19.228Z,50.59
2023-04-06T04:19:45.665Z,50.33
2023-04-06T04:22:12.181Z,50.35
2023-04-06T04:24:38.632Z,50.34
2023-04-06T04:27:06.071Z,49.75
2023-04-06T04:29:32.638Z,49.95
2023-04-06T04:31:59.209Z,50.23
2023-04-06T04:34:26.202Z,50.32
2023-04-06T04:36:53.353Z,50.24
2023-04-06T04:39:19.810Z,50.05
2023-04-06T04:41:46.237Z,50.20
2023-04-06T04:44:12.789Z,50.83
2023-04-06T04:46:39.859Z,50.26
2023-04-06T04:49:06.508Z,50.45
2023-04-06T04:51:33.692Z,50.44
2023-04-06T04:54:00.333Z,49.58
2023-04-06T04:56:28.501Z,49.73
2023-04-06T04:58:55.123Z,49.21
2023-04-06T05:01:21.720Z,48.89
2023-04-06T05:03:48.373Z,49.08
2023-04-06T05:06:14.955Z,49.90
2023-04-06T05:08:42.484Z,49.50
2023-04-06T05:11:09.994Z,49.78
2023-04-06T05:13:36.564Z,49.18
2023-04-06T05:16:03.149Z,48.72
2023-04-06T05:18:29.764Z,48.86
2023-04-06T05:20:56.383Z,48.55
2023-04-06T05:23:22.843Z,48.64
2023-04-06T05:25:50.076Z,48.34
2023-04-06T05:28:16.945Z,47.89
2023-04-06T05:30:44.309Z,47.31
2023-04-06T05:33:12.030Z,47.62
2023-04-06T05:35:38.680Z,47.00
2023-04-06T05:38:08.961Z,47.43
2023-04-06T05:40:35.569Z,46.67
2023-04-06T05:43:02.076Z,47.01
2023-04-06T05:45:28.563Z,47.08
2023-04-06T05:47:55.150Z,46.89
2023-04-06T05:50:21.674Z,46.87
2023-04-06T05:52:48.214Z,46.30
2023-04-06T05:55:14.717Z,46.05
2023-04-06T05:57:41.179Z,45.97
2023-04-06T06:00:10.834Z,45.96
2023-04-06T06:02:37.843Z,44.59
2023-04-06T06:05:04.628Z,44.28
2023-04-06T06:07:31.069Z,43.33
2023-04-06T06:09:59.131Z,42.88
2023-04-06T06:12:25.631Z,42.32
2023-04-06T06:14:52.077Z,40.92
2023-04-06T06:17:18.528Z,41.76
2023-04-06T06:19:45.250Z,41.32
2023-04-06T06:22:12.029Z,39.62
2023-04-06T06:24:38.529Z,39.74
2023-04-06T06:27:05.021Z,39.12
2023-04-06T06:29:31.520Z,38.45
2023-04-06T06:31:58.131Z,38.45
2023-04-06T06:34:24.640Z,37.51
2023-04-06T06:36:52.956Z,37.30
2023-04-06T06:39:19.476Z,37.56
2023-04-06T06:41:46.023Z,36.62
2023-04-06T06:44:12.592Z,36.70
2023-04-06T06:46:39.058Z,37.50
2023-04-06T06:49:05.549Z,37.80
2023-04-06T06:51:32.028Z,38.98
2023-04-06T06:53:58.519Z,38.83
2023-04-06T06:56:25.081Z,38.56
2023-04-06T06:58:51.609Z,38.39
2023-04-06T07:01:18.692Z,38.79
2023-04-06T07:03:45.443Z,38.08
2023-04-06T07:06:11.961Z,39.01
2023-04-06T07:08:38.439Z,38.62
2023-04-06T07:11:05.205Z,38.41
2023-04-06T07:13:31.694Z,40.16
2023-04-06T07:15:58.171Z,38.62
2023-04-06T07:18:24.823Z,37.91
2023-04-06T07:20:51.271Z,37.68
2023-04-06T07:23:17.863Z,36.01
2023-04-06T07:25:44.328Z,35.96
2023-04-06T07:28:11.214Z,36.10
2023-04-06T07:30:41.589Z,35.28
2023-04-06T07:33:08.216Z,35.34
2023-04-06T07:35:35.812Z,36.37
2023-04-06T07:38:02.415Z,35.45
2023-04-06T07:40:29.212Z,34.11
2023-04-06T07:42:56.816Z,35.02
2023-04-06T07:45:24.551Z,32.69
2023-04-06T07:47:51.166Z,32.15
2023-04-06T07:50:17.924Z,32.29
2023-04-06T07:52:44.443Z,31.75
2023-04-06T07:55:10.900Z,32.03
2023-04-06T07:57:37.402Z,32.47
2023-04-06T08:00:04.783Z,32.26
2023-04-06T08:02:33.023Z,31.10
2023-04-06T08:04:59.661Z,29.05
2023-04-06T08:07:26.319Z,30.10
2023-04-06T08:09:53.107Z,30.62
2023-04-06T08:12:19.566Z,31.26
2023-04-06T08:14:46.026Z,31.93
2023-04-06T08:17:12.671Z,32.28
2023-04-06T08:19:39.127Z,32.38
2023-04-06T08:22:05.617Z,32.41
2023-04-06T08:24:33.331Z,31.36
2023-04-06T08:26:59.921Z,32.06
2023-04-06T08:29:26.386Z,30.02
2023-04-06T08:31:52.899Z,31.49
2023-04-06T08:34:19.489Z,30.87
2023-04-06T08:36:46.933Z,30.70
2023-04-06T08:39:13.432Z,31.05
2023-04-06T08:41:42.946Z,31.64
2023-04-06T08:44:09.934Z,31.01
2023-04-06T08:46:36.646Z,30.74
2023-04-06T08:49:04.260Z,30.79
2023-04-06T08:51:34.092Z,30.47
2023-04-06T08:54:01.200Z,30.99
2023-04-06T08:56:29.389Z,31.85
2023-04-06T08:58:56.941Z,32.36
2023-04-06T09:01:28.681Z,32.33
2023-04-06T09:04:01.321Z,32.02
2023-04-06T09:06:28.380Z,32.82
2023-04-06T09:08:55.890Z,32.72
2023-04-06T09:11:22.529Z,32.92
2023-04-06T09:13:54.060Z,34.06
2023-04-06T09:16:21.792Z,33.92
2023-04-06T09:18:49.126Z,34.02
2023-04-06T09:21:19.833Z,34.28
2023-04-06T09:23:47.218Z,34.13
2023-04-06T09:26:15.933Z,33.32
2023-04-06T09:28:49.783Z,32.54
2023-04-06T09:31:23.294Z,31.90
2023-04-06T09:33:49.877Z,31.63
2023-04-06T09:36:16.861Z,30.52
2023-04-06T09:38:57.214Z,31.33
2023-04-06T09:41:31.291Z,33.35
2023-04-06T09:44:04.826Z,32.60
2023-04-06T09:46:50.605Z,32.23
2023-04-06T09:49:23.832Z,31.56
2023-04-06T09:51:56.705Z,31.26
2023-04-06T09:54:24.332Z,31.72
2023-04-06T09:57:03.068Z,31.72
2023-04-06T09:59:29.637Z,30.53
2023-04-06T10:01:59.336Z,31.70
2023-04-06T10:04:35.103Z,31.36
2023-04-06T10:07:03.259Z,31.22
2023-04-06T10:09:36.873Z,30.38
2023-04-06T10:12:07.417Z,31.30
2023-04-06T10:14:38.517Z,30.20
2023-04-06T10:17:06.031Z,30.57
2023-04-06T10:19:54.871Z,32.95
2023-04-06T10:22:30.704Z,31.58
2023-04-06T10:24:57.186Z,31.64
2023-04-06T10:27:30.815Z,31.02
2023-04-06T10:30:04.250Z,30.90
2023-04-06T10:32:38.399Z,30.75
2023-04-06T10:35:12.601Z,31.25
2023-04-06T10:37:51.412Z,31.04
2023-04-06T10:40:26.132Z,31.20
2023-04-06T10:42:56.820Z,31.53
2023-04-06T10:45:25.461Z,31.74
2023-04-06T10:47:56.009Z,31.72
2023-04-06T10:50:24.129Z,31.82
2023-04-06T10:53:03.829Z,30.75
2023-04-06T10:55:30.849Z,30.96
2023-04-06T10:57:57.419Z,31.61
2023-04-06T11:00:24.432Z,29.85
2023-04-06T11:02:52.151Z,30.00
2023-04-06T11:05:18.711Z,29.86
2023-04-06T11:07:45.576Z,30.20
2023-04-06T11:10:16.911Z,30.52
2023-04-06T11:12:45.030Z,29.77
2023-04-06T11:15:11.779Z,30.70
2023-04-06T11:17:38.379Z,30.87
2023-04-06T11:20:10.878Z,31.33
2023-04-06T11:22:37.623Z,30.53
2023-04-06T11:27:37.763Z,29.16
2023-04-06T11:30:04.711Z,29.57
2023-04-06T11:32:40.249Z,28.39
2023-04-06T11:37:38.463Z,29.28
2023-04-06T11:40:09.269Z,30.46
2023-04-06T11:42:36.555Z,30.14
2023-04-06T11:45:03.330Z,29.66
2023-04-06T11:47:31.971Z,31.00
2023-04-06T11:50:15.511Z,29.78
2023-04-06T11:52:42.660Z,29.01
2023-04-06T11:55:14.951Z,29.82
2023-04-06T11:57:42.264Z,30.60
2023-04-06T12:00:13.329Z,30.11
2023-04-06T12:02:40.853Z,30.41
2023-04-06T12:05:09.243Z,30.10
2023-04-06T12:07:36.188Z,30.32
2023-04-06T12:10:04.160Z,29.08
2023-04-06T12:12:31.107Z,28.50
2023-04-06T12:14:58.010Z,27.98
2023-04-06T12:17:24.853Z,28.39
2023-04-06T12:19:51.745Z,27.87
2023-04-06T12:22:18.985Z,28.63
2023-04-06T12:24:45.625Z,28.11
2023-04-06T12:27:12.519Z,28.53
2023-04-06T12:29:39.638Z,29.56
2023-04-06T12:32:07.098Z,29.31
2023-04-06T12:34:33.589Z,28.10
2023-04-06T12:37:00.619Z,28.89
2023-04-06T12:39:28.799Z,28.79
2023-04-06T12:41:56.271Z,28.77
2023-04-06T12:44:23.667Z,27.57
2023-04-06T12:46:51.459Z,27.57
2023-04-06T12:49:19.995Z,27.15
2023-04-06T12:51:46.607Z,26.76
2023-04-06T12:54:13.105Z,25.93
2023-04-06T12:56:39.947Z,26.33
2023-04-06T12:59:06.484Z,26.32
2023-04-06T13:01:33.966Z,26.43
2023-04-06T13:04:00.536Z,26.39
2023-04-06T13:06:30.213Z,26.80
2023-04-06T13:08:56.962Z,25.72
2023-04-06T13:11:26.902Z,26.52
2023-04-06T13:13:54.295Z,26.54
2023-04-06T13:16:20.864Z,27.32
2023-04-06T13:18:47.397Z,27.06
2023-04-06T13:21:17.463Z,26.23
2023-04-06T13:23:44.808Z,26.09
2023-04-06T13:26:11.470Z,26.29
2023-04-06T13:28:39.717Z,26.06
2023-04-06T13:31:07.432Z,26.60
2023-04-06T13:33:34.212Z,26.26
2023-04-06T13:36:01.126Z,25.95
2023-04-06T13:38:27.884Z,25.99
2023-04-06T13:40:54.872Z,25.94
2023-04-06T13:43:21.677Z,27.03
2023-04-06T13:45:52.938Z,26.08
2023-04-06T13:48:19.652Z,26.20
2023-04-06T13:50:46.788Z,25.74
2023-04-06T13:53:13.796Z,24.86
2023-04-06T13:55:40.331Z,26.00
2023-04-06T13:58:06.753Z,24.25
2023-04-06T14:00:33.202Z,26.15
2023-04-06T14:02:59.808Z,25.70
2023-04-06T14:05:28.675Z,25.29
2023-04-06T14:07:55.512Z,25.01
2023-04-06T14:10:24.665Z,24.61
2023-04-06T14:12:51.349Z,25.43
2023-04-06T14:15:18.488Z,25.39
2023-04-06T14:17:45.156Z,26.08
2023-04-06T14:20:15.034Z,24.98
2023-04-06T14:22:43.745Z,25.51
2023-04-06T14:25:12.014Z,24.60
2023-04-06T14:27:38.441Z,24.58
2023-04-06T14:30:05.279Z,24.98
2023-04-06T14:32:31.748Z,25.20
2023-04-06T14:34:58.158Z,25.23
2023-04-06T14:37:24.549Z,26.01
2023-04-06T14:39:50.992Z,25.00
2023-04-06T14:42:17.446Z,25.90
2023-04-06T14:44:46.111Z,25.55
2023-04-06T14:47:12.843Z,26.21
2023-04-06T14:49:39.308Z,25.97
2023-04-06T14:52:05.917Z,25.70
2023-04-06T14:54:32.432Z,26.33
2023-04-06T14:56:58.964Z,25.93
2023-04-06T14:59:25.552Z,25.89
2023-04-06T15:01:52.487Z,25.24
2023-04-06T15:04:19.123Z,26.42
2023-04-06T15:06:45.763Z,25.65
2023-04-06T15:09:12.216Z,27.53
2023-04-06T15:11:39.195Z,25.79
2023-04-06T15:14:07.214Z,25.92
2023-04-06T15:16:33.893Z,26.46
2023-04-06T15:19:01.326Z,25.61
2023-04-06T15:21:27.933Z,26.64
2023-04-06T15:23:54.836Z,26.92
2023-04-06T15:26:21.974Z,26.40
2023-04-06T15:28:48.416Z,26.31
2023-04-06T15:33:48.634Z,25.95
2023-04-06T15:36:29.374Z,25.98
2023-04-06T15:38:57.582Z,26.54
2023-04-06T15:41:24.188Z,26.37
2023-04-06T15:43:51.468Z,26.02
2023-04-06T15:46:17.944Z,26.12
2023-04-06T15:48:44.920Z,26.39
2023-04-06T15:51:11.549Z,25.66
2023-04-06T15:53:38.919Z,25.61
2023-04-06T15:56:08.554Z,26.00
2023-04-06T15:58:35.832Z,26.61
2023-04-06T16:01:14.379Z,26.49
2023-04-06T16:03:41.002Z,26.56
2023-04-06T16:06:08.885Z,26.27
2023-04-06T16:08:36.718Z,26.97
2023-04-06T16:11:03.364Z,26.90
2023-04-06T16:13:29.876Z,26.43
2023-04-06T16:15:56.405Z,27.82
2023-04-06T16:18:22.889Z,26.54
2023-04-06T16:20:49.638Z,26.44
2023-04-06T16:23:16.496Z,26.53
2023-04-06T16:25:42.941Z,26.13
2023-04-06T16:28:09.441Z,26.24
2023-04-06T16:30:40.922Z,26.37
2023-04-06T16:33:09.222Z,26.48
2023-04-06T16:35:35.920Z,27.38
2023-04-06T16:38:02.324Z,27.54
2023-04-06T16:40:28.774Z,27.78
2023-04-06T16:42:56.189Z,28.00
2023-04-06T16:45:22.625Z,27.75
2023-04-06T16:47:50.465Z,28.90
2023-04-06T16:50:17.471Z,29.25
2023-04-06T16:52:44.007Z,29.14
2023-04-06T16:55:11.085Z,28.71
2023-04-06T16:57:37.685Z,29.12
2023-04-06T17:00:05.714Z,29.47
2023-04-06T17:02:35.991Z,28.87
2023-04-06T17:05:04.118Z,29.00
2023-04-06T17:07:35.592Z,29.35
2023-04-06T17:10:02.901Z,29.09
2023-04-06T17:12:29.816Z,29.50
2023-04-06T17:14:56.857Z,29.60
2023-04-06T17:17:23.452Z,29.55
2023-04-06T17:19:50.033Z,29.33
2023-04-06T17:22:20.618Z,29.54
2023-04-06T17:24:48.679Z,29.76
2023-04-06T17:27:15.890Z,30.05
2023-04-06T17:29:42.605Z,30.08
2023-04-06T17:32:09.264Z,29.94
2023-04-06T17:34:35.788Z,30.10
2023-04-06T17:37:02.466Z,30.15
2023-04-06T17:39:28.934Z,30.39
2023-04-06T17:41:55.366Z,30.47
2023-04-06T17:44:21.835Z,30.62
2023-04-06T17:46:48.350Z,30.71
2023-04-06T17:49:14.904Z,30.48
2023-04-06T17:51:41.326Z,31.29
2023-04-06T17:54:07.750Z,31.56
2023-04-06T17:56:34.179Z,31.20
2023-04-06T17:59:01.298Z,32.02
2023-04-06T18:01:28.023Z,31.82
2023-04-06T18:03:54.646Z,32.14
2023-04-06T18:06:25.116Z,31.69
2023-04-06T18:08:52.408Z,32.73
2023-04-06T18:11:19.779Z,32.27
2023-04-06T18:13:46.246Z,32.15
2023-04-06T18:16:12.942Z,31.64
2023-04-06T18:18:39.428Z,32.48
2023-04-06T18:21:06.561Z,32.26
2023-04-06T18:23:37.615Z,32.47
2023-04-06T18:26:05.563Z,32.46
2023-04-06T18:28:32.332Z,32.50
2023-04-06T18:30:59.697Z,32.52
2023-04-06T18:33:29.052Z,32.92
2023-04-06T18:35:56.651Z,32.49
2023-04-06T18:38:24.094Z,32.50
2023-04-06T18:40:51.363Z,32.74
2023-04-06T18:43:17.799Z,31.97
2023-04-06T18:45:44.765Z,32.60
2023-04-06T18:48:12.059Z,33.36
2023-04-06T18:50:38.631Z,32.71
2023-04-06T18:53:05.189Z,33.19
2023-04-06T18:55:34.837Z,33.63
2023-04-06T18:58:01.416Z,33.90
2023-04-06T19:00:28.009Z,33.71
2023-04-06T19:02:54.842Z,33.99
2023-04-06T19:05:22.464Z,34.25
2023-04-06T19:07:52.580Z,34.29
2023-04-06T19:10:19.576Z,34.13
2023-04-06T19:12:46.734Z,34.42
2023-04-06T19:15:13.533Z,35.06
2023-04-06T19:17:40.044Z,35.24
2023-04-06T19:20:07.446Z,35.44
2023-04-06T19:22:37.718Z,35.37
2023-04-06T19:25:05.574Z,35.85
2023-04-06T19:27:32.229Z,37.04
2023-04-06T19:30:00.008Z,36.16
2023-04-06T19:32:27.000Z,36.52
2023-04-06T19:34:53.736Z,36.82
2023-04-06T19:37:20.194Z,36.92
2023-04-06T19:39:47.704Z,37.21
2023-04-06T19:42:15.540Z,37.45
2023-04-06T19:44:42.232Z,38.05
2023-04-06T19:47:08.893Z,38.19
2023-04-06T19:49:35.430Z,38.27
2023-04-06T19:52:01.878Z,38.88
2023-04-06T19:54:28.323Z,38.66
2023-04-06T19:56:54.872Z,38.49
2023-04-06T19:59:21.594Z,38.64
2023-04-06T20:01:48.200Z,39.17
2023-04-06T20:04:14.953Z,38.99
2023-04-06T20:06:41.571Z,39.57
2023-04-06T20:09:08.172Z,38.88
2023-04-06T20:11:35.978Z,38.16
2023-04-06T20:14:02.582Z,38.71
2023-04-06T20:16:29.114Z,38.43
2023-04-06T20:18:55.557Z,39.19
2023-04-06T20:21:22.179Z,39.06
2023-04-06T20:23:48.711Z,38.99
2023-04-06T20:26:15.686Z,39.55
2023-04-06T20:28:42.477Z,39.43
2023-04-06T20:31:08.937Z,39.28
2023-04-06T20:33:35.479Z,39.15
2023-04-06T20:36:02.156Z,38.82
2023-04-06T20:40:59.596Z,38.99
2023-04-06T20:43:28.475Z,39.52
2023-04-06T20:45:59.130Z,39.48
2023-04-06T20:48:26.086Z,39.57
2023-04-06T20:50:52.940Z,39.60
2023-04-06T20:53:20.658Z,39.99
2023-04-06T20:55:47.504Z,40.21
2023-04-06T20:58:16.019Z,40.72
2023-04-06T21:00:42.525Z,40.75
2023-04-06T21:03:09.269Z,41.32
2023-04-06T21:05:36.087Z,41.03
2023-04-06T21:08:02.612Z,40.46
2023-04-06T21:10:29.145Z,41.24
2023-04-06T21:12:55.710Z,40.89
2023-04-06T21:15:22.707Z,41.32
2023-04-06T21:17:49.505Z,40.94
2023-04-06T21:20:16.178Z,40.73
2023-04-06T21:22:42.647Z,41.15
2023-04-06T21:25:09.413Z,41.43
2023-04-06T21:27:35.852Z,40.92
2023-04-06T21:30:02.296Z,41.28
2023-04-06T21:32:29.954Z,41.83
2023-04-06T21:34:56.387Z,41.67
2023-04-06T21:37:22.871Z,41.06
2023-04-06T21:39:49.517Z,42.49
2023-04-06T21:42:15.986Z,42.42
2023-04-06T21:44:42.409Z,41.94
2023-04-06T21:47:08.850Z,42.62
2023-04-06T21:49:35.342Z,41.78
2023-04-06T21:52:01.876Z,42.36
2023-04-06T21:54:33.085Z,42.67
2023-04-06T21:56:59.862Z,42.94
2023-04-06T21:59:26.341Z,42.92
2023-04-06T22:01:54.231Z,42.66
2023-04-06T22:04:25.690Z,42.28
2023-04-06T22:06:52.247Z,42.65
2023-04-06T22:09:18.670Z,43.31
2023-04-06T22:11:45.281Z,42.97
2023-04-06T22:14:12.707Z,42.86
2023-04-06T22:16:39.344Z,43.06
2023-04-06T22:19:05.882Z,42.97
2023-04-06T22:21:32.395Z,42.54
2023-04-06T22:23:58.949Z,43.32
2023-04-06T22:26:26.239Z,43.01
2023-04-06T22:28:52.988Z,43.21
2023-04-06T22:31:19.449Z,43.65
2023-04-06T22:33:45.869Z,44.30
2023-04-06T22:36:12.557Z,44.14
2023-04-06T22:38:39.049Z,44.30
2023-04-06T22:41:07.180Z,44.67
2023-04-06T22:43:34.834Z,44.15
2023-04-06T22:46:01.425Z,44.55
2023-04-06T22:48:27.970Z,44.56
2023-04-06T22:50:54.610Z,45.08
2023-04-06T22:53:21.058Z,44.76
2023-04-06T22:55:47.616Z,45.04
2023-04-06T22:58:14.078Z,45.33
2023-04-06T23:00:40.547Z,44.77
2023-04-06T23:03:07.067Z,45.34
2023-04-06T23:05:33.654Z,45.15
2023-04-06T23:08:00.147Z,45.47
2023-04-06T23:10:26.645Z,45.53
2023-04-06T23:12:53.102Z,45.89
2023-04-06T23:15:19.557Z,45.35
2023-04-06T23:17:46.049Z,45.42
2023-04-06T23:20:12.562Z,45.40
2023-04-06T23:22:38.985Z,45.61
2023-04-06T23:25:07.567Z,45.88
2023-04-06T23:27:34.018Z,45.97
2023-04-06T23:30:00.454Z,45.35
2023-04-06T23:32:26.992Z,45.25
2023-04-06T23:34:53.457Z,45.52
2023-04-06T23:37:19.921Z,45.58
2023-04-06T23:39:48.268Z,45.33
2023-04-06T23:42:14.720Z,45.04
2023-04-06T23:44:41.318Z,44.98
2023-04-06T23:47:07.961Z,44.78
2023-04-06T23:49:34.618Z,44.83
2023-04-06T23:52:01.109Z,44.70
2023-04-06T23:54:27.518Z,44.79
2023-04-06T23:56:53.997Z,44.19
2023-04-06T23:59:20.443Z,44.78
